sensor_id;sensor_type;location;lat;lon;timestamp;temperature;humidity
39777;DHT22;25453;48.162;14.510;2022-12-10T00:00:14;4.40;81.50
39777;DHT22;25453;48.162;14.510;2022-12-10T00:02:41;4.40;81.40
39777;DHT22;25453;48.162;14.510;2022-12-10T00:05:14;4.50;81.50
39777;DHT22;25453;48.162;14.510;2022-12-10T00:07:42;4.50;81.50
39777;DHT22;25453;48.162;14.510;2022-12-10T00:10:15;4.50;81.50
39777;DHT22;25453;48.162;14.510;2022-12-10T00:12:43;4.50;81.40
39777;DHT22;25453;48.162;14.510;2022-12-10T00:15:16;4.50;81.30
39777;DHT22;25453;48.162;14.510;2022-12-10T00:17:50;4.50;81.30
39777;DHT22;25453;48.162;14.510;2022-12-10T00:20:17;4.50;81.30
39777;DHT22;25453;48.162;14.510;2022-12-10T00:22:51;4.50;81.40
39777;DHT22;25453;48.162;14.510;2022-12-10T00:25:25;4.50;81.50
39777;DHT22;25453;48.162;14.510;2022-12-10T00:27:53;4.50;81.40
39777;DHT22;25453;48.162;14.510;2022-12-10T00:30:26;4.50;81.40
39777;DHT22;25453;48.162;14.510;2022-12-10T00:33:07;4.50;81.40
39777;DHT22;25453;48.162;14.510;2022-12-10T00:35:47;4.50;81.40
39777;DHT22;25453;48.162;14.510;2022-12-10T00:38:21;4.50;81.40
39777;DHT22;25453;48.162;14.510;2022-12-10T00:40:48;4.50;81.30
39777;DHT22;25453;48.162;14.510;2022-12-10T00:43:22;4.50;81.50
39777;DHT22;25453;48.162;14.510;2022-12-10T00:45:49;4.60;81.50
39777;DHT22;25453;48.162;14.510;2022-12-10T00:48:23;4.60;81.40
39777;DHT22;25453;48.162;14.510;2022-12-10T00:51:13;4.60;81.30
39777;DHT22;25453;48.162;14.510;2022-12-10T00:53:49;4.60;81.30
39777;DHT22;25453;48.162;14.510;2022-12-10T00:56:27;4.60;81.50
39777;DHT22;25453;48.162;14.510;2022-12-10T00:59:02;4.60;81.30
39777;DHT22;25453;48.162;14.510;2022-12-10T01:01:38;4.60;81.40
39777;DHT22;25453;48.162;14.510;2022-12-10T01:04:12;4.60;81.30
39777;DHT22;25453;48.162;14.510;2022-12-10T01:06:50;4.60;81.30
39777;DHT22;25453;48.162;14.510;2022-12-10T01:09:26;4.60;81.30
39777;DHT22;25453;48.162;14.510;2022-12-10T01:11:55;4.50;81.20
39777;DHT22;25453;48.162;14.510;2022-12-10T01:14:32;4.50;81.20
39777;DHT22;25453;48.162;14.510;2022-12-10T01:17:02;4.50;81.30
39777;DHT22;25453;48.162;14.510;2022-12-10T01:19:36;4.50;81.30
39777;DHT22;25453;48.162;14.510;2022-12-10T01:22:10;4.50;81.30
39777;DHT22;25453;48.162;14.510;2022-12-10T01:24:37;4.50;81.40
39777;DHT22;25453;48.162;14.510;2022-12-10T01:27:11;4.50;81.30
39777;DHT22;25453;48.162;14.510;2022-12-10T01:29:38;4.50;81.40
39777;DHT22;25453;48.162;14.510;2022-12-10T01:32:12;4.50;81.50
39777;DHT22;25453;48.162;14.510;2022-12-10T01:34:46;4.50;81.50
39777;DHT22;25453;48.162;14.510;2022-12-10T01:37:19;4.50;81.30
39777;DHT22;25453;48.162;14.510;2022-12-10T01:39:46;4.50;81.40
39777;DHT22;25453;48.162;14.510;2022-12-10T01:42:20;4.50;81.60
39777;DHT22;25453;48.162;14.510;2022-12-10T01:47:22;4.50;81.60
39777;DHT22;25453;48.162;14.510;2022-12-10T01:49:57;4.60;81.70
39777;DHT22;25453;48.162;14.510;2022-12-10T01:52:24;4.60;81.80
39777;DHT22;25453;48.162;14.510;2022-12-10T01:54:58;4.70;81.90
39777;DHT22;25453;48.162;14.510;2022-12-10T01:57:27;4.70;81.60
39777;DHT22;25453;48.162;14.510;2022-12-10T02:00:04;4.70;81.60
39777;DHT22;25453;48.162;14.510;2022-12-10T02:02:42;4.70;81.50
39777;DHT22;25453;48.162;14.510;2022-12-10T02:05:39;4.70;81.50
39777;DHT22;25453;48.162;14.510;2022-12-10T02:09:08;4.70;81.60
39777;DHT22;25453;48.162;14.510;2022-12-10T02:11:45;4.70;81.70
39777;DHT22;25453;48.162;14.510;2022-12-10T02:14:32;4.70;81.50
39777;DHT22;25453;48.162;14.510;2022-12-10T02:17:19;4.70;81.50
39777;DHT22;25453;48.162;14.510;2022-12-10T02:22:49;4.70;81.30
39777;DHT22;25453;48.162;14.510;2022-12-10T02:25:20;4.60;81.20
39777;DHT22;25453;48.162;14.510;2022-12-10T02:30:37;4.60;81.40
39777;DHT22;25453;48.162;14.510;2022-12-10T02:33:13;4.60;81.30
39777;DHT22;25453;48.162;14.510;2022-12-10T02:35:56;4.60;81.30
39777;DHT22;25453;48.162;14.510;2022-12-10T02:38:34;4.60;81.40
39777;DHT22;25453;48.162;14.510;2022-12-10T02:41:08;4.60;81.40
39777;DHT22;25453;48.162;14.510;2022-12-10T02:43:45;4.50;81.50
39777;DHT22;25453;48.162;14.510;2022-12-10T02:46:14;4.50;81.40
39777;DHT22;25453;48.162;14.510;2022-12-10T02:48:49;4.50;81.40
39777;DHT22;25453;48.162;14.510;2022-12-10T02:51:16;4.50;81.40
39777;DHT22;25453;48.162;14.510;2022-12-10T02:54:05;4.50;81.30
39777;DHT22;25453;48.162;14.510;2022-12-10T02:57:54;4.50;81.40
39777;DHT22;25453;48.162;14.510;2022-12-10T03:02:44;4.50;81.70
39777;DHT22;25453;48.162;14.510;2022-12-10T03:08:24;4.60;81.90
39777;DHT22;25453;48.162;14.510;2022-12-10T03:11:16;4.60;81.50
39777;DHT22;25453;48.162;14.510;2022-12-10T03:14:03;4.60;81.60
39777;DHT22;25453;48.162;14.510;2022-12-10T03:16:43;4.60;81.70
39777;DHT22;25453;48.162;14.510;2022-12-10T03:19:15;4.60;81.80
39777;DHT22;25453;48.162;14.510;2022-12-10T03:21:51;4.60;81.50
39777;DHT22;25453;48.162;14.510;2022-12-10T03:24:26;4.60;81.50
39777;DHT22;25453;48.162;14.510;2022-12-10T03:26:54;4.50;81.50
39777;DHT22;25453;48.162;14.510;2022-12-10T03:29:45;4.50;81.50
39777;DHT22;25453;48.162;14.510;2022-12-10T03:32:14;4.50;81.60
39777;DHT22;25453;48.162;14.510;2022-12-10T03:34:51;4.50;81.60
39777;DHT22;25453;48.162;14.510;2022-12-10T03:37:33;4.50;81.50
39777;DHT22;25453;48.162;14.510;2022-12-10T03:40:08;4.50;81.50
39777;DHT22;25453;48.162;14.510;2022-12-10T03:42:44;4.50;81.60
39777;DHT22;25453;48.162;14.510;2022-12-10T03:45:11;4.40;81.50
39777;DHT22;25453;48.162;14.510;2022-12-10T03:47:45;4.40;81.60
39777;DHT22;25453;48.162;14.510;2022-12-10T03:50:13;4.40;81.60
39777;DHT22;25453;48.162;14.510;2022-12-10T03:52:46;4.40;81.70
39777;DHT22;25453;48.162;14.510;2022-12-10T03:55:13;4.40;81.80
39777;DHT22;25453;48.162;14.510;2022-12-10T03:57:47;4.40;81.70
39777;DHT22;25453;48.162;14.510;2022-12-10T04:00:15;4.40;81.70
39777;DHT22;25453;48.162;14.510;2022-12-10T04:02:42;4.40;81.70
39777;DHT22;25453;48.162;14.510;2022-12-10T04:05:15;4.50;81.80
39777;DHT22;25453;48.162;14.510;2022-12-10T04:07:43;4.50;81.70
39777;DHT22;25453;48.162;14.510;2022-12-10T04:10:17;4.40;81.70
39777;DHT22;25453;48.162;14.510;2022-12-10T04:12:44;4.50;81.90
39777;DHT22;25453;48.162;14.510;2022-12-10T04:15:39;4.50;82.00
39777;DHT22;25453;48.162;14.510;2022-12-10T04:18:24;4.50;81.80
39777;DHT22;25453;48.162;14.510;2022-12-10T04:20:59;4.50;81.70
39777;DHT22;25453;48.162;14.510;2022-12-10T04:24:12;4.50;81.80
39777;DHT22;25453;48.162;14.510;2022-12-10T04:27:03;4.50;81.70
39777;DHT22;25453;48.162;14.510;2022-12-10T04:29:39;4.50;81.70
39777;DHT22;25453;48.162;14.510;2022-12-10T04:32:06;4.40;81.70
39777;DHT22;25453;48.162;14.510;2022-12-10T04:34:40;4.50;81.70
39777;DHT22;25453;48.162;14.510;2022-12-10T04:37:15;4.40;81.70
39777;DHT22;25453;48.162;14.510;2022-12-10T04:39:50;4.40;81.70
39777;DHT22;25453;48.162;14.510;2022-12-10T04:42:18;4.40;81.90
39777;DHT22;25453;48.162;14.510;2022-12-10T04:44:51;4.40;82.10
39777;DHT22;25453;48.162;14.510;2022-12-10T04:47:18;4.50;82.30
39777;DHT22;25453;48.162;14.510;2022-12-10T04:49:52;4.50;82.30
39777;DHT22;25453;48.162;14.510;2022-12-10T04:52:19;4.60;82.40
39777;DHT22;25453;48.162;14.510;2022-12-10T04:54:54;4.60;82.40
39777;DHT22;25453;48.162;14.510;2022-12-10T04:57:21;4.70;82.20
39777;DHT22;25453;48.162;14.510;2022-12-10T04:59:54;4.60;81.90
39777;DHT22;25453;48.162;14.510;2022-12-10T05:02:21;4.60;81.50
39777;DHT22;25453;48.162;14.510;2022-12-10T05:04:55;4.60;81.60
39777;DHT22;25453;48.162;14.510;2022-12-10T05:07:22;4.50;81.60
39777;DHT22;25453;48.162;14.510;2022-12-10T05:09:49;4.50;81.50
39777;DHT22;25453;48.162;14.510;2022-12-10T05:12:23;4.40;81.60
39777;DHT22;25453;48.162;14.510;2022-12-10T05:14:50;4.40;81.60
39777;DHT22;25453;48.162;14.510;2022-12-10T05:17:24;4.40;81.70
39777;DHT22;25453;48.162;14.510;2022-12-10T05:19:51;4.40;81.90
39777;DHT22;25453;48.162;14.510;2022-12-10T05:22:25;4.40;81.90
39777;DHT22;25453;48.162;14.510;2022-12-10T05:25:11;4.40;82.00
39777;DHT22;25453;48.162;14.510;2022-12-10T05:27:44;4.50;82.20
39777;DHT22;25453;48.162;14.510;2022-12-10T05:30:12;4.50;82.10
39777;DHT22;25453;48.162;14.510;2022-12-10T05:32:45;4.50;81.80
39777;DHT22;25453;48.162;14.510;2022-12-10T05:35:26;4.50;81.70
39777;DHT22;25453;48.162;14.510;2022-12-10T05:38:06;4.50;81.80
39777;DHT22;25453;48.162;14.510;2022-12-10T05:40:35;4.50;82.00
39777;DHT22;25453;48.162;14.510;2022-12-10T05:43:08;4.50;82.00
39777;DHT22;25453;48.162;14.510;2022-12-10T05:45:36;4.50;81.80
39777;DHT22;25453;48.162;14.510;2022-12-10T05:48:11;4.50;81.90
39777;DHT22;25453;48.162;14.510;2022-12-10T05:50:38;4.50;81.80
39777;DHT22;25453;48.162;14.510;2022-12-10T05:53:12;4.50;81.60
39777;DHT22;25453;48.162;14.510;2022-12-10T05:55:40;4.50;81.60
39777;DHT22;25453;48.162;14.510;2022-12-10T05:58:14;4.40;81.60
39777;DHT22;25453;48.162;14.510;2022-12-10T06:00:41;4.40;81.80
39777;DHT22;25453;48.162;14.510;2022-12-10T06:03:14;4.40;81.70
39777;DHT22;25453;48.162;14.510;2022-12-10T06:05:48;4.40;81.60
39777;DHT22;25453;48.162;14.510;2022-12-10T06:08:15;4.40;81.60
39777;DHT22;25453;48.162;14.510;2022-12-10T06:10:49;4.40;81.80
39777;DHT22;25453;48.162;14.510;2022-12-10T06:13:23;4.40;82.10
39777;DHT22;25453;48.162;14.510;2022-12-10T06:15:58;4.50;82.20
39777;DHT22;25453;48.162;14.510;2022-12-10T06:18:25;4.50;82.30
39777;DHT22;25453;48.162;14.510;2022-12-10T06:20:58;4.60;82.10
39777;DHT22;25453;48.162;14.510;2022-12-10T06:23:25;4.60;81.80
39777;DHT22;25453;48.162;14.510;2022-12-10T06:25:52;4.60;82.00
39777;DHT22;25453;48.162;14.510;2022-12-10T06:28:26;4.60;81.90
39777;DHT22;25453;48.162;14.510;2022-12-10T06:30:53;4.60;81.80
39777;DHT22;25453;48.162;14.510;2022-12-10T06:33:28;4.60;81.70
39777;DHT22;25453;48.162;14.510;2022-12-10T06:36:04;4.50;81.70
39777;DHT22;25453;48.162;14.510;2022-12-10T06:38:39;4.50;81.90
39777;DHT22;25453;48.162;14.510;2022-12-10T06:41:08;4.60;82.10
39777;DHT22;25453;48.162;14.510;2022-12-10T06:43:42;4.50;82.00
39777;DHT22;25453;48.162;14.510;2022-12-10T06:46:19;4.60;81.90
39777;DHT22;25453;48.162;14.510;2022-12-10T06:48:52;4.50;81.90
39777;DHT22;25453;48.162;14.510;2022-12-10T06:51:20;4.50;82.00
39777;DHT22;25453;48.162;14.510;2022-12-10T06:53:53;4.50;81.90
39777;DHT22;25453;48.162;14.510;2022-12-10T06:56:21;4.50;81.80
39777;DHT22;25453;48.162;14.510;2022-12-10T06:58:54;4.50;81.90
39777;DHT22;25453;48.162;14.510;2022-12-10T07:01:23;4.60;82.20
39777;DHT22;25453;48.162;14.510;2022-12-10T07:04:01;4.60;82.00
39777;DHT22;25453;48.162;14.510;2022-12-10T07:06:28;4.60;81.90
39777;DHT22;25453;48.162;14.510;2022-12-10T07:08:57;4.60;81.90
39777;DHT22;25453;48.162;14.510;2022-12-10T07:11:32;4.60;82.00
39777;DHT22;25453;48.162;14.510;2022-12-10T07:14:05;4.60;81.80
39777;DHT22;25453;48.162;14.510;2022-12-10T07:16:33;4.60;81.80
39777;DHT22;25453;48.162;14.510;2022-12-10T07:19:10;4.50;81.90
39777;DHT22;25453;48.162;14.510;2022-12-10T07:21:40;4.50;81.60
39777;DHT22;25453;48.162;14.510;2022-12-10T07:24:18;4.50;81.70
39777;DHT22;25453;48.162;14.510;2022-12-10T07:26:46;4.40;81.90
39777;DHT22;25453;48.162;14.510;2022-12-10T07:29:21;4.50;82.00
39777;DHT22;25453;48.162;14.510;2022-12-10T07:31:49;4.50;82.00
39777;DHT22;25453;48.162;14.510;2022-12-10T07:34:22;4.50;82.00
39777;DHT22;25453;48.162;14.510;2022-12-10T07:36:56;4.50;81.90
39777;DHT22;25453;48.162;14.510;2022-12-10T07:39:29;4.50;81.90
39777;DHT22;25453;48.162;14.510;2022-12-10T07:42:03;4.50;82.10
39777;DHT22;25453;48.162;14.510;2022-12-10T07:44:31;4.60;82.20
39777;DHT22;25453;48.162;14.510;2022-12-10T07:47:05;4.60;82.20
39777;DHT22;25453;48.162;14.510;2022-12-10T07:49:32;4.60;82.20
39777;DHT22;25453;48.162;14.510;2022-12-10T07:52:05;4.70;82.30
39777;DHT22;25453;48.162;14.510;2022-12-10T07:54:32;4.70;82.20
39777;DHT22;25453;48.162;14.510;2022-12-10T07:57:06;4.70;81.90
39777;DHT22;25453;48.162;14.510;2022-12-10T07:59:33;4.70;81.90
39777;DHT22;25453;48.162;14.510;2022-12-10T08:02:09;4.70;82.10
39777;DHT22;25453;48.162;14.510;2022-12-10T08:04:42;4.70;82.00
39777;DHT22;25453;48.162;14.510;2022-12-10T08:07:16;4.70;81.90
39777;DHT22;25453;48.162;14.510;2022-12-10T08:09:50;4.70;81.90
39777;DHT22;25453;48.162;14.510;2022-12-10T08:12:18;4.70;81.90
39777;DHT22;25453;48.162;14.510;2022-12-10T08:14:52;4.70;82.00
39777;DHT22;25453;48.162;14.510;2022-12-10T08:17:19;4.70;82.00
39777;DHT22;25453;48.162;14.510;2022-12-10T08:19:52;4.70;81.80
39777;DHT22;25453;48.162;14.510;2022-12-10T08:22:21;4.70;82.00
39777;DHT22;25453;48.162;14.510;2022-12-10T08:24:54;4.80;82.10
39777;DHT22;25453;48.162;14.510;2022-12-10T08:27:28;4.80;82.30
39777;DHT22;25453;48.162;14.510;2022-12-10T08:30:03;4.90;82.40
39777;DHT22;25453;48.162;14.510;2022-12-10T08:32:30;4.90;82.30
39777;DHT22;25453;48.162;14.510;2022-12-10T08:35:10;5.00;82.20
39777;DHT22;25453;48.162;14.510;2022-12-10T08:37:50;5.00;82.10
39777;DHT22;25453;48.162;14.510;2022-12-10T08:40:24;5.00;82.10
39777;DHT22;25453;48.162;14.510;2022-12-10T08:42:52;5.00;82.00
39777;DHT22;25453;48.162;14.510;2022-12-10T08:45:28;5.00;82.10
39777;DHT22;25453;48.162;14.510;2022-12-10T08:48:02;5.10;82.00
39777;DHT22;25453;48.162;14.510;2022-12-10T08:50:37;5.10;82.00
39777;DHT22;25453;48.162;14.510;2022-12-10T08:53:04;5.10;81.90
39777;DHT22;25453;48.162;14.510;2022-12-10T08:55:39;5.10;82.00
39777;DHT22;25453;48.162;14.510;2022-12-10T08:58:15;5.10;82.10
39777;DHT22;25453;48.162;14.510;2022-12-10T09:00:42;5.10;82.10
39777;DHT22;25453;48.162;14.510;2022-12-10T09:03:17;5.10;82.00
39777;DHT22;25453;48.162;14.510;2022-12-10T09:05:51;5.20;82.00
39777;DHT22;25453;48.162;14.510;2022-12-10T09:08:25;5.20;82.00
39777;DHT22;25453;48.162;14.510;2022-12-10T09:11:08;5.20;82.00
39777;DHT22;25453;48.162;14.510;2022-12-10T09:13:36;5.20;82.00
39777;DHT22;25453;48.162;14.510;2022-12-10T09:16:10;5.20;81.90
39777;DHT22;25453;48.162;14.510;2022-12-10T09:18:38;5.30;81.90
39777;DHT22;25453;48.162;14.510;2022-12-10T09:21:14;5.30;81.80
39777;DHT22;25453;48.162;14.510;2022-12-10T09:23:50;5.30;81.80
39777;DHT22;25453;48.162;14.510;2022-12-10T09:26:24;5.30;81.80
39777;DHT22;25453;48.162;14.510;2022-12-10T09:28:58;5.30;81.60
39777;DHT22;25453;48.162;14.510;2022-12-10T09:31:27;5.30;81.50
39777;DHT22;25453;48.162;14.510;2022-12-10T09:34:15;5.20;81.50
39777;DHT22;25453;48.162;14.510;2022-12-10T09:36:55;5.20;81.50
39777;DHT22;25453;48.162;14.510;2022-12-10T09:39:29;5.20;81.40
39777;DHT22;25453;48.162;14.510;2022-12-10T09:45:12;5.20;81.50
39777;DHT22;25453;48.162;14.510;2022-12-10T09:47:54;5.20;81.40
39777;DHT22;25453;48.162;14.510;2022-12-10T09:50:31;5.20;81.60
39777;DHT22;25453;48.162;14.510;2022-12-10T09:53:12;5.20;81.70
39777;DHT22;25453;48.162;14.510;2022-12-10T09:55:50;5.30;81.80
39777;DHT22;25453;48.162;14.510;2022-12-10T09:58:26;5.30;81.70
39777;DHT22;25453;48.162;14.510;2022-12-10T10:01:04;5.30;81.50
39777;DHT22;25453;48.162;14.510;2022-12-10T10:03:40;5.30;81.40
39777;DHT22;25453;48.162;14.510;2022-12-10T10:06:10;5.30;81.40
39777;DHT22;25453;48.162;14.510;2022-12-10T10:08:48;5.20;81.40
39777;DHT22;25453;48.162;14.510;2022-12-10T10:11:23;5.20;81.30
39777;DHT22;25453;48.162;14.510;2022-12-10T10:14:13;5.20;81.40
39777;DHT22;25453;48.162;14.510;2022-12-10T10:16:54;5.20;81.40
39777;DHT22;25453;48.162;14.510;2022-12-10T10:19:33;5.20;81.30
39777;DHT22;25453;48.162;14.510;2022-12-10T10:22:03;5.20;81.10
39777;DHT22;25453;48.162;14.510;2022-12-10T10:24:39;5.20;81.60
39777;DHT22;25453;48.162;14.510;2022-12-10T10:29:51;5.20;81.40
39777;DHT22;25453;48.162;14.510;2022-12-10T10:32:48;5.20;81.30
39777;DHT22;25453;48.162;14.510;2022-12-10T10:35:41;5.20;81.20
39777;DHT22;25453;48.162;14.510;2022-12-10T10:38:18;5.20;81.20
39777;DHT22;25453;48.162;14.510;2022-12-10T10:40:57;5.20;81.30
39777;DHT22;25453;48.162;14.510;2022-12-10T10:43:33;5.20;81.30
39777;DHT22;25453;48.162;14.510;2022-12-10T10:46:20;5.20;81.40
39777;DHT22;25453;48.162;14.510;2022-12-10T10:48:48;5.20;81.60
39777;DHT22;25453;48.162;14.510;2022-12-10T10:51:22;5.30;81.50
39777;DHT22;25453;48.162;14.510;2022-12-10T10:53:56;5.20;81.30
39777;DHT22;25453;48.162;14.510;2022-12-10T10:56:41;5.20;81.10
39777;DHT22;25453;48.162;14.510;2022-12-10T11:01:47;5.20;81.40
39777;DHT22;25453;48.162;14.510;2022-12-10T11:04:36;5.20;81.40
39777;DHT22;25453;48.162;14.510;2022-12-10T11:07:11;5.30;81.70
39777;DHT22;25453;48.162;14.510;2022-12-10T11:09:45;5.30;81.60
39777;DHT22;25453;48.162;14.510;2022-12-10T11:12:37;5.30;81.50
39777;DHT22;25453;48.162;14.510;2022-12-10T11:17:58;5.40;81.30
39777;DHT22;25453;48.162;14.510;2022-12-10T11:20:33;5.40;81.30
39777;DHT22;25453;48.162;14.510;2022-12-10T11:23:10;5.30;81.10
39777;DHT22;25453;48.162;14.510;2022-12-10T11:25:55;5.30;81.30
39777;DHT22;25453;48.162;14.510;2022-12-10T11:41:24;5.30;81.40
39777;DHT22;25453;48.162;14.510;2022-12-10T11:44:37;5.30;81.50
39777;DHT22;25453;48.162;14.510;2022-12-10T11:49:39;5.30;81.40
39777;DHT22;25453;48.162;14.510;2022-12-10T11:55:25;5.30;81.40
39777;DHT22;25453;48.162;14.510;2022-12-10T12:09:39;5.30;81.40
39777;DHT22;25453;48.162;14.510;2022-12-10T12:18:23;5.30;81.50
39777;DHT22;25453;48.162;14.510;2022-12-10T12:20:58;5.30;81.50
39777;DHT22;25453;48.162;14.510;2022-12-10T12:23:58;5.30;81.40
39777;DHT22;25453;48.162;14.510;2022-12-10T12:26:39;5.20;81.40
39777;DHT22;25453;48.162;14.510;2022-12-10T12:29:30;5.20;81.40
39777;DHT22;25453;48.162;14.510;2022-12-10T12:32:11;5.20;81.50
39777;DHT22;25453;48.162;14.510;2022-12-10T12:38:19;5.20;81.50
39777;DHT22;25453;48.162;14.510;2022-12-10T12:40:47;5.20;81.50
39777;DHT22;25453;48.162;14.510;2022-12-10T12:46:09;5.20;81.60
39777;DHT22;25453;48.162;14.510;2022-12-10T12:49:02;5.20;81.70
39777;DHT22;25453;48.162;14.510;2022-12-10T12:52:02;5.20;81.60
39777;DHT22;25453;48.162;14.510;2022-12-10T12:54:33;5.20;81.30
39777;DHT22;25453;48.162;14.510;2022-12-10T12:57:14;5.20;81.20
39777;DHT22;25453;48.162;14.510;2022-12-10T13:00:03;5.20;81.30
39777;DHT22;25453;48.162;14.510;2022-12-10T13:05:24;5.20;81.50
39777;DHT22;25453;48.162;14.510;2022-12-10T13:13:42;5.20;81.50
39777;DHT22;25453;48.162;14.510;2022-12-10T13:22:09;5.20;81.20
39777;DHT22;25453;48.162;14.510;2022-12-10T13:24:47;5.10;81.30
39777;DHT22;25453;48.162;14.510;2022-12-10T13:27:31;5.10;81.40
39777;DHT22;25453;48.162;14.510;2022-12-10T13:32:47;5.10;81.50
39777;DHT22;25453;48.162;14.510;2022-12-10T13:35:29;5.10;81.50
39777;DHT22;25453;48.162;14.510;2022-12-10T13:38:22;5.10;81.60
39777;DHT22;25453;48.162;14.510;2022-12-10T13:41:05;5.20;81.60
39777;DHT22;25453;48.162;14.510;2022-12-10T13:43:59;5.20;81.50
39777;DHT22;25453;48.162;14.510;2022-12-10T13:49:30;5.20;81.50
39777;DHT22;25453;48.162;14.510;2022-12-10T13:52:18;5.20;81.50
39777;DHT22;25453;48.162;14.510;2022-12-10T13:57:56;5.20;81.50
39777;DHT22;25453;48.162;14.510;2022-12-10T14:01:29;5.20;81.30
39777;DHT22;25453;48.162;14.510;2022-12-10T14:06:26;5.10;81.20
39777;DHT22;25453;48.162;14.510;2022-12-10T14:09:09;5.10;81.40
39777;DHT22;25453;48.162;14.510;2022-12-10T14:11:46;5.10;81.40
39777;DHT22;25453;48.162;14.510;2022-12-10T14:14:36;5.10;81.40
39777;DHT22;25453;48.162;14.510;2022-12-10T14:17:19;5.10;81.40
39777;DHT22;25453;48.162;14.510;2022-12-10T14:19:55;5.10;81.40
39777;DHT22;25453;48.162;14.510;2022-12-10T14:22:30;5.10;81.40
39777;DHT22;25453;48.162;14.510;2022-12-10T14:25:01;5.10;81.40
39777;DHT22;25453;48.162;14.510;2022-12-10T14:27:37;5.20;81.50
39777;DHT22;25453;48.162;14.510;2022-12-10T14:30:26;5.20;81.40
39777;DHT22;25453;48.162;14.510;2022-12-10T14:33:01;5.20;81.40
39777;DHT22;25453;48.162;14.510;2022-12-10T14:35:35;5.20;81.40
39777;DHT22;25453;48.162;14.510;2022-12-10T14:38:25;5.20;81.40
39777;DHT22;25453;48.162;14.510;2022-12-10T14:41:02;5.20;81.40
39777;DHT22;25453;48.162;14.510;2022-12-10T14:43:32;5.20;81.40
39777;DHT22;25453;48.162;14.510;2022-12-10T14:46:24;5.20;81.30
39777;DHT22;25453;48.162;14.510;2022-12-10T14:48:52;5.20;81.30
39777;DHT22;25453;48.162;14.510;2022-12-10T14:51:32;5.20;81.40
39777;DHT22;25453;48.162;14.510;2022-12-10T14:54:25;5.20;81.50
39777;DHT22;25453;48.162;14.510;2022-12-10T14:56:54;5.20;81.60
39777;DHT22;25453;48.162;14.510;2022-12-10T14:59:50;5.30;81.60
39777;DHT22;25453;48.162;14.510;2022-12-10T15:02:32;5.30;81.70
39777;DHT22;25453;48.162;14.510;2022-12-10T15:05:02;5.30;81.70
39777;DHT22;25453;48.162;14.510;2022-12-10T15:07:37;5.30;81.70
39777;DHT22;25453;48.162;14.510;2022-12-10T15:10:10;5.40;81.70
39777;DHT22;25453;48.162;14.510;2022-12-10T15:12:49;5.40;81.70
39777;DHT22;25453;48.162;14.510;2022-12-10T15:18:10;5.40;81.60
39777;DHT22;25453;48.162;14.510;2022-12-10T15:20:48;5.40;81.70
39777;DHT22;25453;48.162;14.510;2022-12-10T15:26:23;5.40;81.50
39777;DHT22;25453;48.162;14.510;2022-12-10T15:31:57;5.30;81.70
39777;DHT22;25453;48.162;14.510;2022-12-10T15:34:28;5.30;81.50
39777;DHT22;25453;48.162;14.510;2022-12-10T15:37:03;5.30;81.60
39777;DHT22;25453;48.162;14.510;2022-12-10T15:39:47;5.30;81.70
39777;DHT22;25453;48.162;14.510;2022-12-10T15:45:25;5.30;81.80
39777;DHT22;25453;48.162;14.510;2022-12-10T15:48:08;5.30;81.80
39777;DHT22;25453;48.162;14.510;2022-12-10T15:50:40;5.30;81.80
39777;DHT22;25453;48.162;14.510;2022-12-10T15:53:34;5.30;81.80
39777;DHT22;25453;48.162;14.510;2022-12-10T15:56:08;5.30;81.80
39777;DHT22;25453;48.162;14.510;2022-12-10T15:58:36;5.30;81.80
39777;DHT22;25453;48.162;14.510;2022-12-10T16:01:13;5.30;81.80
39777;DHT22;25453;48.162;14.510;2022-12-10T16:03:47;5.30;81.80
39777;DHT22;25453;48.162;14.510;2022-12-10T16:06:21;5.30;81.60
39777;DHT22;25453;48.162;14.510;2022-12-10T16:08:48;5.30;81.70
39777;DHT22;25453;48.162;14.510;2022-12-10T16:11:23;5.20;81.70
39777;DHT22;25453;48.162;14.510;2022-12-10T16:13:57;5.20;81.80
39777;DHT22;25453;48.162;14.510;2022-12-10T16:16:32;5.20;81.70
39777;DHT22;25453;48.162;14.510;2022-12-10T16:19:10;5.20;81.70
39777;DHT22;25453;48.162;14.510;2022-12-10T16:21:38;5.20;81.60
39777;DHT22;25453;48.162;14.510;2022-12-10T16:24:12;5.10;81.60
39777;DHT22;25453;48.162;14.510;2022-12-10T16:26:39;5.10;81.60
39777;DHT22;25453;48.162;14.510;2022-12-10T16:29:13;5.10;81.70
39777;DHT22;25453;48.162;14.510;2022-12-10T16:31:42;5.10;81.70
39777;DHT22;25453;48.162;14.510;2022-12-10T16:34:15;5.00;81.60
39777;DHT22;25453;48.162;14.510;2022-12-10T16:36:56;5.00;81.70
39777;DHT22;25453;48.162;14.510;2022-12-10T16:39:36;5.00;81.80
39777;DHT22;25453;48.162;14.510;2022-12-10T16:42:18;5.00;81.80
39777;DHT22;25453;48.162;14.510;2022-12-10T16:44:45;5.00;81.80
39777;DHT22;25453;48.162;14.510;2022-12-10T16:47:19;5.00;81.80
39777;DHT22;25453;48.162;14.510;2022-12-10T16:49:47;5.00;81.90
39777;DHT22;25453;48.162;14.510;2022-12-10T16:52:20;5.00;81.80
39777;DHT22;25453;48.162;14.510;2022-12-10T16:54:47;5.00;81.80
39777;DHT22;25453;48.162;14.510;2022-12-10T16:57:21;5.00;81.90
39777;DHT22;25453;48.162;14.510;2022-12-10T16:59:49;5.00;81.90
39777;DHT22;25453;48.162;14.510;2022-12-10T17:02:22;5.00;82.10
39777;DHT22;25453;48.162;14.510;2022-12-10T17:04:50;4.90;81.70
39777;DHT22;25453;48.162;14.510;2022-12-10T17:07:23;4.90;81.70
39777;DHT22;25453;48.162;14.510;2022-12-10T17:09:57;4.90;81.70
39777;DHT22;25453;48.162;14.510;2022-12-10T17:12:27;4.90;81.70
39777;DHT22;25453;48.162;14.510;2022-12-10T17:15:03;4.90;81.80
39777;DHT22;25453;48.162;14.510;2022-12-10T17:17:42;4.90;81.70
39777;DHT22;25453;48.162;14.510;2022-12-10T17:20:18;4.90;81.90
39777;DHT22;25453;48.162;14.510;2022-12-10T17:22:51;4.80;81.70
39777;DHT22;25453;48.162;14.510;2022-12-10T17:25:19;4.90;81.80
39777;DHT22;25453;48.162;14.510;2022-12-10T17:27:46;4.80;81.80
39777;DHT22;25453;48.162;14.510;2022-12-10T17:30:19;4.80;81.90
39777;DHT22;25453;48.162;14.510;2022-12-10T17:32:46;4.80;81.90
39777;DHT22;25453;48.162;14.510;2022-12-10T17:35:20;4.80;81.90
39777;DHT22;25453;48.162;14.510;2022-12-10T17:38:01;4.80;81.90
39777;DHT22;25453;48.162;14.510;2022-12-10T17:40:28;4.80;81.90
39777;DHT22;25453;48.162;14.510;2022-12-10T17:43:02;4.80;81.90
39777;DHT22;25453;48.162;14.510;2022-12-10T17:45:29;4.80;82.00
39777;DHT22;25453;48.162;14.510;2022-12-10T17:48:04;4.80;81.80
39777;DHT22;25453;48.162;14.510;2022-12-10T17:50:40;4.80;81.90
39777;DHT22;25453;48.162;14.510;2022-12-10T17:53:11;4.70;81.90
39777;DHT22;25453;48.162;14.510;2022-12-10T17:55:58;4.70;81.90
39777;DHT22;25453;48.162;14.510;2022-12-10T17:58:26;4.70;81.90
39777;DHT22;25453;48.162;14.510;2022-12-10T18:01:01;4.70;82.00
39777;DHT22;25453;48.162;14.510;2022-12-10T18:03:28;4.70;82.00
39777;DHT22;25453;48.162;14.510;2022-12-10T18:06:13;4.70;82.00